Terminal Aerodrome Forecast
Issued by NWS

Home | Current Version | Previous Version | Text Only | Print | Product List | Glossary On
Versions: 1 2 3 4 5 6 7 8 9 10 11 12 13 14 15
000
FTUS44 KTSA 261100
TAFFYV
TAF
KFYV 261139Z 2612/2712 06007KT P6SM BKN012
     FM261700 08010KT P6SM BKN025
     FM262000 09012KT P6SM SCT035 SCT150
     FM270000 11011KT P6SM BKN035 PROB30 2703/2709 -TSRA BKN025CB=

USA.gov is the U.S. government's official web portal to all federal, state and local government web resources and services.